sensor_id;sensor_type;location;lat;lon;timestamp;temperature;humidity
1015;DHT22;8170;48.118;11.628;2022-11-20T00:00:03;5.90;99.90
1015;DHT22;8170;48.118;11.628;2022-11-20T00:01:09;5.80;99.90
1015;DHT22;8170;48.118;11.628;2022-11-20T00:02:12;5.80;99.90
1015;DHT22;8170;48.118;11.628;2022-11-20T00:03:14;5.80;99.90
1015;DHT22;8170;48.118;11.628;2022-11-20T00:04:18;5.90;99.90
1015;DHT22;8170;48.118;11.628;2022-11-20T00:05:21;5.90;99.90
1015;DHT22;8170;48.118;11.628;2022-11-20T00:06:25;5.90;99.90
1015;DHT22;8170;48.118;11.628;2022-11-20T00:07:28;5.90;99.90
1015;DHT22;8170;48.118;11.628;2022-11-20T00:08:31;5.90;99.90
1015;DHT22;8170;48.118;11.628;2022-11-20T00:09:33;5.90;99.90
1015;DHT22;8170;48.118;11.628;2022-11-20T00:10:37;5.90;99.90
1015;DHT22;8170;48.118;11.628;2022-11-20T00:11:39;5.90;99.90
1015;DHT22;8170;48.118;11.628;2022-11-20T00:12:42;5.90;99.90
1015;DHT22;8170;48.118;11.628;2022-11-20T00:13:45;5.90;99.90
1015;DHT22;8170;48.118;11.628;2022-11-20T00:14:49;6.00;99.90
1015;DHT22;8170;48.118;11.628;2022-11-20T00:15:57;6.00;99.90
1015;DHT22;8170;48.118;11.628;2022-11-20T00:17:00;6.00;99.90
1015;DHT22;8170;48.118;11.628;2022-11-20T00:18:03;6.00;99.90
1015;DHT22;8170;48.118;11.628;2022-11-20T00:19:06;6.00;99.90
1015;DHT22;8170;48.118;11.628;2022-11-20T00:20:10;5.90;99.90
1015;DHT22;8170;48.118;11.628;2022-11-20T00:21:13;6.00;99.90
1015;DHT22;8170;48.118;11.628;2022-11-20T00:22:17;6.00;99.90
1015;DHT22;8170;48.118;11.628;2022-11-20T00:23:19;6.00;99.90
1015;DHT22;8170;48.118;11.628;2022-11-20T00:24:22;6.00;99.90
1015;DHT22;8170;48.118;11.628;2022-11-20T00:25:24;6.00;99.90
1015;DHT22;8170;48.118;11.628;2022-11-20T00:26:28;6.00;99.90
1015;DHT22;8170;48.118;11.628;2022-11-20T00:27:30;6.00;99.90
1015;DHT22;8170;48.118;11.628;2022-11-20T00:28:34;6.00;99.90
1015;DHT22;8170;48.118;11.628;2022-11-20T00:29:36;6.00;99.90
1015;DHT22;8170;48.118;11.628;2022-11-20T00:30:41;6.00;99.90
1015;DHT22;8170;48.118;11.628;2022-11-20T00:31:43;6.00;99.90
1015;DHT22;8170;48.118;11.628;2022-11-20T00:32:46;6.00;99.90
1015;DHT22;8170;48.118;11.628;2022-11-20T00:33:48;6.00;99.90
1015;DHT22;8170;48.118;11.628;2022-11-20T00:34:52;6.00;99.90
1015;DHT22;8170;48.118;11.628;2022-11-20T00:35:56;6.00;99.90
1015;DHT22;8170;48.118;11.628;2022-11-20T00:37:01;6.00;99.90
1015;DHT22;8170;48.118;11.628;2022-11-20T00:38:03;6.10;99.90
1015;DHT22;8170;48.118;11.628;2022-11-20T00:39:06;6.00;99.90
1015;DHT22;8170;48.118;11.628;2022-11-20T00:40:09;6.00;99.90
1015;DHT22;8170;48.118;11.628;2022-11-20T00:41:14;6.00;99.90
1015;DHT22;8170;48.118;11.628;2022-11-20T00:42:16;6.00;99.90
1015;DHT22;8170;48.118;11.628;2022-11-20T00:43:19;6.00;99.90
1015;DHT22;8170;48.118;11.628;2022-11-20T00:44:22;6.00;99.90
1015;DHT22;8170;48.118;11.628;2022-11-20T00:45:25;6.00;99.90
1015;DHT22;8170;48.118;11.628;2022-11-20T00:46:29;6.00;99.90
1015;DHT22;8170;48.118;11.628;2022-11-20T00:47:32;6.00;99.90
1015;DHT22;8170;48.118;11.628;2022-11-20T00:48:34;6.00;99.90
1015;DHT22;8170;48.118;11.628;2022-11-20T00:49:38;6.00;99.90
1015;DHT22;8170;48.118;11.628;2022-11-20T00:50:41;6.00;99.90
1015;DHT22;8170;48.118;11.628;2022-11-20T00:51:44;6.10;99.90
1015;DHT22;8170;48.118;11.628;2022-11-20T00:52:46;6.10;99.90
1015;DHT22;8170;48.118;11.628;2022-11-20T00:53:50;6.00;99.90
1015;DHT22;8170;48.118;11.628;2022-11-20T00:54:52;6.00;99.90
1015;DHT22;8170;48.118;11.628;2022-11-20T00:55:56;6.00;99.90
1015;DHT22;8170;48.118;11.628;2022-11-20T00:56:58;6.00;99.90
1015;DHT22;8170;48.118;11.628;2022-11-20T00:58:02;6.00;99.90
1015;DHT22;8170;48.118;11.628;2022-11-20T00:59:05;6.00;99.90
1015;DHT22;8170;48.118;11.628;2022-11-20T01:00:09;6.00;99.90
1015;DHT22;8170;48.118;11.628;2022-11-20T01:01:13;6.00;99.90
1015;DHT22;8170;48.118;11.628;2022-11-20T01:02:17;6.00;99.90
1015;DHT22;8170;48.118;11.628;2022-11-20T01:03:20;6.00;99.90
1015;DHT22;8170;48.118;11.628;2022-11-20T01:04:28;6.00;99.90
1015;DHT22;8170;48.118;11.628;2022-11-20T01:05:34;6.00;99.90
1015;DHT22;8170;48.118;11.628;2022-11-20T01:06:38;5.90;99.90
1015;DHT22;8170;48.118;11.628;2022-11-20T01:07:41;6.00;99.90
1015;DHT22;8170;48.118;11.628;2022-11-20T01:08:44;6.00;99.90
1015;DHT22;8170;48.118;11.628;2022-11-20T01:09:48;6.00;99.90
1015;DHT22;8170;48.118;11.628;2022-11-20T01:10:50;6.00;99.90
1015;DHT22;8170;48.118;11.628;2022-11-20T01:11:53;6.00;99.90
1015;DHT22;8170;48.118;11.628;2022-11-20T01:12:55;6.00;99.90
1015;DHT22;8170;48.118;11.628;2022-11-20T01:14:14;6.00;99.90
1015;DHT22;8170;48.118;11.628;2022-11-20T01:15:17;6.10;99.90
1015;DHT22;8170;48.118;11.628;2022-11-20T01:16:21;6.10;99.90
1015;DHT22;8170;48.118;11.628;2022-11-20T01:17:26;6.10;99.90
1015;DHT22;8170;48.118;11.628;2022-11-20T01:18:28;6.10;99.90
1015;DHT22;8170;48.118;11.628;2022-11-20T01:19:31;6.10;99.90
1015;DHT22;8170;48.118;11.628;2022-11-20T01:20:34;6.00;99.90
1015;DHT22;8170;48.118;11.628;2022-11-20T01:21:39;6.00;99.90
1015;DHT22;8170;48.118;11.628;2022-11-20T01:22:43;6.00;99.90
1015;DHT22;8170;48.118;11.628;2022-11-20T01:23:45;6.00;99.90
1015;DHT22;8170;48.118;11.628;2022-11-20T01:24:49;6.00;99.90
1015;DHT22;8170;48.118;11.628;2022-11-20T01:25:51;6.00;99.90
1015;DHT22;8170;48.118;11.628;2022-11-20T01:26:54;6.00;99.90
1015;DHT22;8170;48.118;11.628;2022-11-20T01:27:57;6.00;99.90
1015;DHT22;8170;48.118;11.628;2022-11-20T01:29:00;6.10;99.90
1015;DHT22;8170;48.118;11.628;2022-11-20T01:30:04;6.10;99.90
1015;DHT22;8170;48.118;11.628;2022-11-20T01:31:14;6.00;99.90
1015;DHT22;8170;48.118;11.628;2022-11-20T01:32:18;6.00;99.90
1015;DHT22;8170;48.118;11.628;2022-11-20T01:33:23;6.00;99.90
1015;DHT22;8170;48.118;11.628;2022-11-20T01:34:25;6.10;99.90
1015;DHT22;8170;48.118;11.628;2022-11-20T01:35:28;6.10;99.90
1015;DHT22;8170;48.118;11.628;2022-11-20T01:36:31;6.10;99.90
1015;DHT22;8170;48.118;11.628;2022-11-20T01:37:34;6.10;99.90
1015;DHT22;8170;48.118;11.628;2022-11-20T01:38:37;6.10;99.90
1015;DHT22;8170;48.118;11.628;2022-11-20T01:39:40;6.00;99.90
1015;DHT22;8170;48.118;11.628;2022-11-20T01:40:42;6.00;99.90
1015;DHT22;8170;48.118;11.628;2022-11-20T01:41:46;6.00;99.90
1015;DHT22;8170;48.118;11.628;2022-11-20T01:43:14;6.00;99.90
1015;DHT22;8170;48.118;11.628;2022-11-20T01:44:43;6.00;99.90
1015;DHT22;8170;48.118;11.628;2022-11-20T01:46:13;6.10;99.90
1015;DHT22;8170;48.118;11.628;2022-11-20T01:47:23;6.10;99.90
1015;DHT22;8170;48.118;11.628;2022-11-20T01:48:32;6.00;99.90
1015;DHT22;8170;48.118;11.628;2022-11-20T01:49:39;6.00;99.90
1015;DHT22;8170;48.118;11.628;2022-11-20T01:50:44;6.00;99.90
1015;DHT22;8170;48.118;11.628;2022-11-20T01:51:50;6.10;99.90
1015;DHT22;8170;48.118;11.628;2022-11-20T01:52:57;6.10;99.90
1015;DHT22;8170;48.118;11.628;2022-11-20T01:54:03;6.10;99.90
1015;DHT22;8170;48.118;11.628;2022-11-20T01:55:09;6.10;99.90
1015;DHT22;8170;48.118;11.628;2022-11-20T01:56:14;6.10;99.90
1015;DHT22;8170;48.118;11.628;2022-11-20T01:57:18;6.00;99.90
1015;DHT22;8170;48.118;11.628;2022-11-20T01:58:24;6.00;99.90
1015;DHT22;8170;48.118;11.628;2022-11-20T01:59:28;6.00;99.90
1015;DHT22;8170;48.118;11.628;2022-11-20T02:00:31;5.90;99.90
1015;DHT22;8170;48.118;11.628;2022-11-20T02:01:34;5.90;99.90
1015;DHT22;8170;48.118;11.628;2022-11-20T02:02:38;5.90;99.90
1015;DHT22;8170;48.118;11.628;2022-11-20T02:03:44;5.90;99.90
1015;DHT22;8170;48.118;11.628;2022-11-20T02:04:47;5.90;99.90
1015;DHT22;8170;48.118;11.628;2022-11-20T02:05:55;5.90;99.90
1015;DHT22;8170;48.118;11.628;2022-11-20T02:07:01;6.00;99.90
1015;DHT22;8170;48.118;11.628;2022-11-20T02:08:05;5.90;99.90
1015;DHT22;8170;48.118;11.628;2022-11-20T02:09:08;5.90;99.90
1015;DHT22;8170;48.118;11.628;2022-11-20T02:10:11;5.90;99.90
1015;DHT22;8170;48.118;11.628;2022-11-20T02:11:14;5.80;99.90
1015;DHT22;8170;48.118;11.628;2022-11-20T02:12:16;5.80;99.90
1015;DHT22;8170;48.118;11.628;2022-11-20T02:13:34;5.90;99.90
1015;DHT22;8170;48.118;11.628;2022-11-20T02:14:46;5.90;99.90
1015;DHT22;8170;48.118;11.628;2022-11-20T02:15:48;5.90;99.90
1015;DHT22;8170;48.118;11.628;2022-11-20T02:16:51;5.90;99.90
1015;DHT22;8170;48.118;11.628;2022-11-20T02:17:54;6.00;99.90
1015;DHT22;8170;48.118;11.628;2022-11-20T02:19:01;5.90;99.90
1015;DHT22;8170;48.118;11.628;2022-11-20T02:20:06;5.90;99.90
1015;DHT22;8170;48.118;11.628;2022-11-20T02:21:15;5.90;99.90
1015;DHT22;8170;48.118;11.628;2022-11-20T02:22:26;5.90;99.90
1015;DHT22;8170;48.118;11.628;2022-11-20T02:23:34;5.90;99.90
1015;DHT22;8170;48.118;11.628;2022-11-20T02:24:39;5.90;99.90
1015;DHT22;8170;48.118;11.628;2022-11-20T02:25:46;5.90;99.90
1015;DHT22;8170;48.118;11.628;2022-11-20T02:26:52;5.80;99.90
1015;DHT22;8170;48.118;11.628;2022-11-20T02:27:56;5.90;99.90
1015;DHT22;8170;48.118;11.628;2022-11-20T02:28:59;5.80;99.90
1015;DHT22;8170;48.118;11.628;2022-11-20T02:30:04;5.80;99.90
1015;DHT22;8170;48.118;11.628;2022-11-20T02:31:09;5.80;99.90
1015;DHT22;8170;48.118;11.628;2022-11-20T02:32:18;5.80;99.90
1015;DHT22;8170;48.118;11.628;2022-11-20T02:33:21;5.90;99.90
1015;DHT22;8170;48.118;11.628;2022-11-20T02:34:24;5.80;99.90
1015;DHT22;8170;48.118;11.628;2022-11-20T02:35:44;5.80;99.90
1015;DHT22;8170;48.118;11.628;2022-11-20T02:36:48;5.80;99.90
1015;DHT22;8170;48.118;11.628;2022-11-20T02:37:54;5.80;99.90
1015;DHT22;8170;48.118;11.628;2022-11-20T02:39:00;5.80;99.90
1015;DHT22;8170;48.118;11.628;2022-11-20T02:40:05;5.80;99.90
1015;DHT22;8170;48.118;11.628;2022-11-20T02:41:08;5.80;99.90
1015;DHT22;8170;48.118;11.628;2022-11-20T02:42:10;5.80;99.90
1015;DHT22;8170;48.118;11.628;2022-11-20T02:43:15;5.90;99.90
1015;DHT22;8170;48.118;11.628;2022-11-20T02:44:18;5.90;99.90
1015;DHT22;8170;48.118;11.628;2022-11-20T02:45:21;5.90;99.90
1015;DHT22;8170;48.118;11.628;2022-11-20T02:46:24;5.90;99.90
1015;DHT22;8170;48.118;11.628;2022-11-20T02:47:27;5.90;99.90
1015;DHT22;8170;48.118;11.628;2022-11-20T02:48:29;5.90;99.90
1015;DHT22;8170;48.118;11.628;2022-11-20T02:49:34;5.90;99.90
1015;DHT22;8170;48.118;11.628;2022-11-20T02:50:38;5.90;99.90
1015;DHT22;8170;48.118;11.628;2022-11-20T02:51:41;5.80;99.90
1015;DHT22;8170;48.118;11.628;2022-11-20T02:52:43;5.80;99.90
1015;DHT22;8170;48.118;11.628;2022-11-20T02:53:47;5.80;99.90
1015;DHT22;8170;48.118;11.628;2022-11-20T02:54:49;5.80;99.90
1015;DHT22;8170;48.118;11.628;2022-11-20T02:55:54;5.80;99.90
1015;DHT22;8170;48.118;11.628;2022-11-20T02:56:56;5.80;99.90
1015;DHT22;8170;48.118;11.628;2022-11-20T02:57:59;5.80;99.90
1015;DHT22;8170;48.118;11.628;2022-11-20T02:59:01;5.80;99.90
1015;DHT22;8170;48.118;11.628;2022-11-20T03:00:06;5.80;99.90
1015;DHT22;8170;48.118;11.628;2022-11-20T03:01:08;5.80;99.90
1015;DHT22;8170;48.118;11.628;2022-11-20T03:02:11;5.80;99.90
1015;DHT22;8170;48.118;11.628;2022-11-20T03:03:15;5.80;99.90
1015;DHT22;8170;48.118;11.628;2022-11-20T03:04:17;5.80;99.90
1015;DHT22;8170;48.118;11.628;2022-11-20T03:05:20;5.80;99.90
1015;DHT22;8170;48.118;11.628;2022-11-20T03:06:22;5.80;99.90
1015;DHT22;8170;48.118;11.628;2022-11-20T03:07:26;5.80;99.90
1015;DHT22;8170;48.118;11.628;2022-11-20T03:08:28;5.80;99.90
1015;DHT22;8170;48.118;11.628;2022-11-20T03:09:31;5.90;99.90
1015;DHT22;8170;48.118;11.628;2022-11-20T03:10:33;5.80;99.90
1015;DHT22;8170;48.118;11.628;2022-11-20T03:11:38;5.80;99.90
1015;DHT22;8170;48.118;11.628;2022-11-20T03:12:40;5.80;99.90
1015;DHT22;8170;48.118;11.628;2022-11-20T03:13:43;5.80;99.90
1015;DHT22;8170;48.118;11.628;2022-11-20T03:14:46;5.80;99.90
1015;DHT22;8170;48.118;11.628;2022-11-20T03:15:53;5.80;99.90
1015;DHT22;8170;48.118;11.628;2022-11-20T03:16:56;5.80;99.90
1015;DHT22;8170;48.118;11.628;2022-11-20T03:18:00;5.80;99.90
1015;DHT22;8170;48.118;11.628;2022-11-20T03:19:02;5.70;99.90
1015;DHT22;8170;48.118;11.628;2022-11-20T03:20:06;5.70;99.90
1015;DHT22;8170;48.118;11.628;2022-11-20T03:21:10;5.70;99.90
1015;DHT22;8170;48.118;11.628;2022-11-20T03:22:13;5.70;99.90
1015;DHT22;8170;48.118;11.628;2022-11-20T03:23:16;5.70;99.90
1015;DHT22;8170;48.118;11.628;2022-11-20T03:24:19;5.80;99.90
1015;DHT22;8170;48.118;11.628;2022-11-20T03:25:21;5.80;99.90
1015;DHT22;8170;48.118;11.628;2022-11-20T03:26:26;5.70;99.90
1015;DHT22;8170;48.118;11.628;2022-11-20T03:27:33;5.70;99.90
1015;DHT22;8170;48.118;11.628;2022-11-20T03:28:37;5.70;99.90
1015;DHT22;8170;48.118;11.628;2022-11-20T03:29:39;5.70;99.90
1015;DHT22;8170;48.118;11.628;2022-11-20T03:30:43;5.80;99.90
1015;DHT22;8170;48.118;11.628;2022-11-20T03:31:45;5.80;99.90
1015;DHT22;8170;48.118;11.628;2022-11-20T03:32:48;5.80;99.90
1015;DHT22;8170;48.118;11.628;2022-11-20T03:33:50;5.70;99.90
1015;DHT22;8170;48.118;11.628;2022-11-20T03:34:54;5.80;99.90
1015;DHT22;8170;48.118;11.628;2022-11-20T03:36:01;5.80;99.90
1015;DHT22;8170;48.118;11.628;2022-11-20T03:37:04;5.70;99.90
1015;DHT22;8170;48.118;11.628;2022-11-20T03:38:06;5.80;99.90
1015;DHT22;8170;48.118;11.628;2022-11-20T03:39:10;5.70;99.90
1015;DHT22;8170;48.118;11.628;2022-11-20T03:40:12;5.80;99.90
1015;DHT22;8170;48.118;11.628;2022-11-20T03:41:19;5.80;99.90
1015;DHT22;8170;48.118;11.628;2022-11-20T03:42:22;5.80;99.90
1015;DHT22;8170;48.118;11.628;2022-11-20T03:43:47;5.80;99.90
1015;DHT22;8170;48.118;11.628;2022-11-20T03:44:50;5.80;99.90
1015;DHT22;8170;48.118;11.628;2022-11-20T03:45:52;5.90;99.90
1015;DHT22;8170;48.118;11.628;2022-11-20T03:46:55;5.90;99.90
1015;DHT22;8170;48.118;11.628;2022-11-20T03:47:57;5.90;99.90
1015;DHT22;8170;48.118;11.628;2022-11-20T03:49:01;5.80;99.90
1015;DHT22;8170;48.118;11.628;2022-11-20T03:50:04;5.90;99.90
1015;DHT22;8170;48.118;11.628;2022-11-20T03:51:12;5.90;99.90
1015;DHT22;8170;48.118;11.628;2022-11-20T03:52:14;5.90;99.90
1015;DHT22;8170;48.118;11.628;2022-11-20T03:53:19;5.90;99.90
1015;DHT22;8170;48.118;11.628;2022-11-20T03:54:22;5.90;99.90
1015;DHT22;8170;48.118;11.628;2022-11-20T03:55:25;5.80;99.90
1015;DHT22;8170;48.118;11.628;2022-11-20T03:56:28;5.80;99.90
1015;DHT22;8170;48.118;11.628;2022-11-20T03:57:32;5.80;99.90
1015;DHT22;8170;48.118;11.628;2022-11-20T03:58:35;5.80;99.90
1015;DHT22;8170;48.118;11.628;2022-11-20T03:59:40;5.80;99.90
1015;DHT22;8170;48.118;11.628;2022-11-20T04:00:42;5.90;99.90
1015;DHT22;8170;48.118;11.628;2022-11-20T04:01:45;5.90;99.90
1015;DHT22;8170;48.118;11.628;2022-11-20T04:02:50;5.80;99.90
1015;DHT22;8170;48.118;11.628;2022-11-20T04:03:55;5.80;99.90
1015;DHT22;8170;48.118;11.628;2022-11-20T04:04:57;5.80;99.90
1015;DHT22;8170;48.118;11.628;2022-11-20T04:06:05;5.80;99.90
1015;DHT22;8170;48.118;11.628;2022-11-20T04:07:07;5.80;99.90
1015;DHT22;8170;48.118;11.628;2022-11-20T04:08:11;5.80;99.90
1015;DHT22;8170;48.118;11.628;2022-11-20T04:09:13;5.80;99.90
1015;DHT22;8170;48.118;11.628;2022-11-20T04:10:17;5.80;99.90
1015;DHT22;8170;48.118;11.628;2022-11-20T04:11:21;5.80;99.90
1015;DHT22;8170;48.118;11.628;2022-11-20T04:12:25;5.80;99.90
1015;DHT22;8170;48.118;11.628;2022-11-20T04:13:27;5.80;99.90
1015;DHT22;8170;48.118;11.628;2022-11-20T04:14:31;5.80;99.90
1015;DHT22;8170;48.118;11.628;2022-11-20T04:15:34;5.80;99.90
1015;DHT22;8170;48.118;11.628;2022-11-20T04:16:39;5.80;99.90
1015;DHT22;8170;48.118;11.628;2022-11-20T04:17:41;5.80;99.90
1015;DHT22;8170;48.118;11.628;2022-11-20T04:18:45;5.80;99.90
1015;DHT22;8170;48.118;11.628;2022-11-20T04:19:47;5.80;99.90
1015;DHT22;8170;48.118;11.628;2022-11-20T04:20:50;5.90;99.90
1015;DHT22;8170;48.118;11.628;2022-11-20T04:21:52;5.90;99.90
1015;DHT22;8170;48.118;11.628;2022-11-20T04:22:56;5.90;99.90
1015;DHT22;8170;48.118;11.628;2022-11-20T04:23:58;5.90;99.90
1015;DHT22;8170;48.118;11.628;2022-11-20T04:25:01;5.90;99.90
1015;DHT22;8170;48.118;11.628;2022-11-20T04:26:04;5.90;99.90
1015;DHT22;8170;48.118;11.628;2022-11-20T04:27:08;5.90;99.90
1015;DHT22;8170;48.118;11.628;2022-11-20T04:28:10;5.90;99.90
1015;DHT22;8170;48.118;11.628;2022-11-20T04:29:13;5.80;99.90
1015;DHT22;8170;48.118;11.628;2022-11-20T04:30:15;5.80;99.90
1015;DHT22;8170;48.118;11.628;2022-11-20T04:31:22;5.90;99.90
1015;DHT22;8170;48.118;11.628;2022-11-20T04:32:24;5.90;99.90
1015;DHT22;8170;48.118;11.628;2022-11-20T04:33:27;5.90;99.90
1015;DHT22;8170;48.118;11.628;2022-11-20T04:34:35;5.90;99.90
1015;DHT22;8170;48.118;11.628;2022-11-20T04:35:38;5.90;99.90
1015;DHT22;8170;48.118;11.628;2022-11-20T04:36:40;5.90;99.90
1015;DHT22;8170;48.118;11.628;2022-11-20T04:37:44;5.90;99.90
1015;DHT22;8170;48.118;11.628;2022-11-20T04:38:46;5.90;99.90
1015;DHT22;8170;48.118;11.628;2022-11-20T04:39:57;5.90;99.90
1015;DHT22;8170;48.118;11.628;2022-11-20T04:40:59;5.90;99.90
1015;DHT22;8170;48.118;11.628;2022-11-20T04:42:03;5.80;99.90
1015;DHT22;8170;48.118;11.628;2022-11-20T04:43:24;5.90;99.90
1015;DHT22;8170;48.118;11.628;2022-11-20T04:44:27;5.90;99.90
1015;DHT22;8170;48.118;11.628;2022-11-20T04:45:29;5.90;99.90
1015;DHT22;8170;48.118;11.628;2022-11-20T04:46:36;5.90;99.90
1015;DHT22;8170;48.118;11.628;2022-11-20T04:47:38;5.90;99.90
1015;DHT22;8170;48.118;11.628;2022-11-20T04:48:42;5.80;99.90
1015;DHT22;8170;48.118;11.628;2022-11-20T04:49:44;5.80;99.90
1015;DHT22;8170;48.118;11.628;2022-11-20T04:50:47;5.80;99.90
1015;DHT22;8170;48.118;11.628;2022-11-20T04:51:53;5.90;99.90
1015;DHT22;8170;48.118;11.628;2022-11-20T04:52:56;5.90;99.90
1015;DHT22;8170;48.118;11.628;2022-11-20T04:53:58;5.80;99.90
1015;DHT22;8170;48.118;11.628;2022-11-20T04:55:02;5.80;99.90
1015;DHT22;8170;48.118;11.628;2022-11-20T04:56:11;5.80;99.90
1015;DHT22;8170;48.118;11.628;2022-11-20T04:57:15;5.80;99.90
1015;DHT22;8170;48.118;11.628;2022-11-20T04:58:17;5.80;99.90
1015;DHT22;8170;48.118;11.628;2022-11-20T04:59:20;5.80;99.90
1015;DHT22;8170;48.118;11.628;2022-11-20T05:00:24;5.80;99.90
1015;DHT22;8170;48.118;11.628;2022-11-20T05:01:28;5.80;99.90
1015;DHT22;8170;48.118;11.628;2022-11-20T05:02:32;5.80;99.90
1015;DHT22;8170;48.118;11.628;2022-11-20T05:03:36;5.80;99.90
1015;DHT22;8170;48.118;11.628;2022-11-20T05:04:43;5.80;99.90
1015;DHT22;8170;48.118;11.628;2022-11-20T05:05:46;5.80;99.90
1015;DHT22;8170;48.118;11.628;2022-11-20T05:06:49;5.80;99.90
1015;DHT22;8170;48.118;11.628;2022-11-20T05:07:52;5.80;99.90
1015;DHT22;8170;48.118;11.628;2022-11-20T05:08:54;5.80;99.90
1015;DHT22;8170;48.118;11.628;2022-11-20T05:09:58;5.80;99.90
1015;DHT22;8170;48.118;11.628;2022-11-20T05:11:01;5.80;99.90
1015;DHT22;8170;48.118;11.628;2022-11-20T05:12:06;5.80;99.90
1015;DHT22;8170;48.118;11.628;2022-11-20T05:13:08;5.80;99.90
1015;DHT22;8170;48.118;11.628;2022-11-20T05:14:12;5.80;99.90
1015;DHT22;8170;48.118;11.628;2022-11-20T05:15:14;5.80;99.90
1015;DHT22;8170;48.118;11.628;2022-11-20T05:16:20;5.70;99.90
1015;DHT22;8170;48.118;11.628;2022-11-20T05:17:22;5.80;99.90
1015;DHT22;8170;48.118;11.628;2022-11-20T05:18:27;5.70;99.90
1015;DHT22;8170;48.118;11.628;2022-11-20T05:19:29;5.80;99.90
1015;DHT22;8170;48.118;11.628;2022-11-20T05:20:33;5.80;99.90
1015;DHT22;8170;48.118;11.628;2022-11-20T05:21:35;5.80;99.90
1015;DHT22;8170;48.118;11.628;2022-11-20T05:22:38;5.80;99.90
1015;DHT22;8170;48.118;11.628;2022-11-20T05:23:41;5.80;99.90
1015;DHT22;8170;48.118;11.628;2022-11-20T05:24:44;5.80;99.90
1015;DHT22;8170;48.118;11.628;2022-11-20T05:25:46;5.80;99.90
1015;DHT22;8170;48.118;11.628;2022-11-20T05:26:53;5.80;99.90
1015;DHT22;8170;48.118;11.628;2022-11-20T05:27:56;5.80;99.90
1015;DHT22;8170;48.118;11.628;2022-11-20T05:28:58;5.80;99.90
1015;DHT22;8170;48.118;11.628;2022-11-20T05:30:01;5.80;99.90
1015;DHT22;8170;48.118;11.628;2022-11-20T05:31:05;5.80;99.90
1015;DHT22;8170;48.118;11.628;2022-11-20T05:32:08;5.70;99.90
1015;DHT22;8170;48.118;11.628;2022-11-20T05:33:11;5.80;99.90
1015;DHT22;8170;48.118;11.628;2022-11-20T05:34:16;5.80;99.90
1015;DHT22;8170;48.118;11.628;2022-11-20T05:35:19;5.80;99.90
1015;DHT22;8170;48.118;11.628;2022-11-20T05:36:22;5.70;99.90
1015;DHT22;8170;48.118;11.628;2022-11-20T05:37:25;5.70;99.90
1015;DHT22;8170;48.118;11.628;2022-11-20T05:38:27;5.70;99.90
1015;DHT22;8170;48.118;11.628;2022-11-20T05:39:30;5.70;99.90
1015;DHT22;8170;48.118;11.628;2022-11-20T05:40:32;5.70;99.90
1015;DHT22;8170;48.118;11.628;2022-11-20T05:41:36;5.70;99.90
1015;DHT22;8170;48.118;11.628;2022-11-20T05:42:38;5.70;99.90
1015;DHT22;8170;48.118;11.628;2022-11-20T05:43:44;5.70;99.90
1015;DHT22;8170;48.118;11.628;2022-11-20T05:44:46;5.70;99.90
1015;DHT22;8170;48.118;11.628;2022-11-20T05:45:53;5.70;99.90
1015;DHT22;8170;48.118;11.628;2022-11-20T05:46:55;5.70;99.90
1015;DHT22;8170;48.118;11.628;2022-11-20T05:47:59;5.70;99.90
1015;DHT22;8170;48.118;11.628;2022-11-20T05:49:04;5.70;99.90
1015;DHT22;8170;48.118;11.628;2022-11-20T05:50:09;5.70;99.90
1015;DHT22;8170;48.118;11.628;2022-11-20T05:51:13;5.70;99.90
1015;DHT22;8170;48.118;11.628;2022-11-20T05:52:16;5.80;99.90
1015;DHT22;8170;48.118;11.628;2022-11-20T05:53:19;5.70;99.90
1015;DHT22;8170;48.118;11.628;2022-11-20T05:54:22;5.70;99.90
1015;DHT22;8170;48.118;11.628;2022-11-20T05:55:25;5.70;99.90
1015;DHT22;8170;48.118;11.628;2022-11-20T05:56:27;5.80;99.90
1015;DHT22;8170;48.118;11.628;2022-11-20T05:57:31;5.70;99.90
1015;DHT22;8170;48.118;11.628;2022-11-20T05:58:33;5.70;99.90
1015;DHT22;8170;48.118;11.628;2022-11-20T05:59:36;5.70;99.90
1015;DHT22;8170;48.118;11.628;2022-11-20T06:00:39;5.70;99.90
1015;DHT22;8170;48.118;11.628;2022-11-20T06:01:42;5.70;99.90
1015;DHT22;8170;48.118;11.628;2022-11-20T06:02:44;5.70;99.90
1015;DHT22;8170;48.118;11.628;2022-11-20T06:03:48;5.70;99.90
1015;DHT22;8170;48.118;11.628;2022-11-20T06:04:52;5.70;99.90
1015;DHT22;8170;48.118;11.628;2022-11-20T06:05:58;5.70;99.90
1015;DHT22;8170;48.118;11.628;2022-11-20T06:07:01;5.80;99.90
1015;DHT22;8170;48.118;11.628;2022-11-20T06:08:03;5.70;99.90
1015;DHT22;8170;48.118;11.628;2022-11-20T06:09:07;5.70;99.90
1015;DHT22;8170;48.118;11.628;2022-11-20T06:10:11;5.80;99.90
1015;DHT22;8170;48.118;11.628;2022-11-20T06:11:14;5.80;99.90
1015;DHT22;8170;48.118;11.628;2022-11-20T06:12:17;5.80;99.90
1015;DHT22;8170;48.118;11.628;2022-11-20T06:13:19;5.80;99.90
1015;DHT22;8170;48.118;11.628;2022-11-20T06:14:22;5.80;99.90
1015;DHT22;8170;48.118;11.628;2022-11-20T06:15:26;5.80;99.90
1015;DHT22;8170;48.118;11.628;2022-11-20T06:16:28;5.80;99.90
1015;DHT22;8170;48.118;11.628;2022-11-20T06:17:31;5.70;99.90
1015;DHT22;8170;48.118;11.628;2022-11-20T06:18:33;5.80;99.90
1015;DHT22;8170;48.118;11.628;2022-11-20T06:19:36;5.80;99.90
1015;DHT22;8170;48.118;11.628;2022-11-20T06:20:38;5.70;99.90
1015;DHT22;8170;48.118;11.628;2022-11-20T06:21:44;5.70;99.90
1015;DHT22;8170;48.118;11.628;2022-11-20T06:22:46;5.70;99.90
1015;DHT22;8170;48.118;11.628;2022-11-20T06:23:51;5.60;99.90
1015;DHT22;8170;48.118;11.628;2022-11-20T06:24:53;5.60;99.90
1015;DHT22;8170;48.118;11.628;2022-11-20T06:25:57;5.60;99.90
1015;DHT22;8170;48.118;11.628;2022-11-20T06:26:59;5.60;99.90
1015;DHT22;8170;48.118;11.628;2022-11-20T06:28:02;5.60;99.90
1015;DHT22;8170;48.118;11.628;2022-11-20T06:29:04;5.60;99.90
1015;DHT22;8170;48.118;11.628;2022-11-20T06:30:09;5.60;99.90
1015;DHT22;8170;48.118;11.628;2022-11-20T06:31:13;5.60;99.90
1015;DHT22;8170;48.118;11.628;2022-11-20T06:32:16;5.60;99.90
1015;DHT22;8170;48.118;11.628;2022-11-20T06:33:18;5.60;99.90
1015;DHT22;8170;48.118;11.628;2022-11-20T06:34:21;5.50;99.90
1015;DHT22;8170;48.118;11.628;2022-11-20T06:35:23;5.50;99.90
1015;DHT22;8170;48.118;11.628;2022-11-20T06:36:27;5.40;99.90
1015;DHT22;8170;48.118;11.628;2022-11-20T06:37:30;5.40;99.90
1015;DHT22;8170;48.118;11.628;2022-11-20T06:38:33;5.40;99.90
1015;DHT22;8170;48.118;11.628;2022-11-20T06:39:35;5.40;99.90
1015;DHT22;8170;48.118;11.628;2022-11-20T06:40:40;5.40;99.90
1015;DHT22;8170;48.118;11.628;2022-11-20T06:41:42;5.40;99.90
1015;DHT22;8170;48.118;11.628;2022-11-20T06:42:45;5.40;99.90
1015;DHT22;8170;48.118;11.628;2022-11-20T06:43:47;5.40;99.90
1015;DHT22;8170;48.118;11.628;2022-11-20T06:44:50;5.40;99.90
1015;DHT22;8170;48.118;11.628;2022-11-20T06:45:53;5.40;99.90
1015;DHT22;8170;48.118;11.628;2022-11-20T06:46:56;5.30;99.90
1015;DHT22;8170;48.118;11.628;2022-11-20T06:47:58;5.40;99.90
1015;DHT22;8170;48.118;11.628;2022-11-20T06:49:04;5.40;99.90
1015;DHT22;8170;48.118;11.628;2022-11-20T06:50:08;5.40;99.90
1015;DHT22;8170;48.118;11.628;2022-11-20T06:51:10;5.40;99.90
1015;DHT22;8170;48.118;11.628;2022-11-20T06:52:13;5.40;99.90
1015;DHT22;8170;48.118;11.628;2022-11-20T06:53:17;5.40;99.90
1015;DHT22;8170;48.118;11.628;2022-11-20T06:54:20;5.30;99.90
1015;DHT22;8170;48.118;11.628;2022-11-20T06:55:23;5.40;99.90
1015;DHT22;8170;48.118;11.628;2022-11-20T06:56:27;5.40;99.90
1015;DHT22;8170;48.118;11.628;2022-11-20T06:57:30;5.40;99.90